Time;durP1;ratioP1;P1;durP2;ratioP2;P2;SDS_P1;SDS_P2;PMS_P1;PMS_P2;Temp;Humidity;BMP_temperature;BMP_pressure;BME280_temperature;BME280_humidity;BME280_pressure;Samples;Min_cycle;Max_cycle;Signal;HPM_P1;HPM_P2
2021/12/03 00:00:42;;;;;;;14.85;8.15;;;;;;;0.52;73.95;100327.09;5045526;28;20401;-71
2021/12/03 00:03:11;;;;;;;18.88;6.50;;;;;;;0.76;72.74;100331.00;5055702;28;20052;-72
2021/12/03 00:05:38;;;;;;;16.60;7.10;;;;;;;0.62;73.90;100333.84;5050727;28;20048;-71
2021/12/03 00:08:05;;;;;;;17.98;6.90;;;;;;;0.58;74.06;100342.50;5040792;28;20096;-72
2021/12/03 00:10:32;;;;;;;18.13;7.25;;;;;;;0.46;74.30;100340.13;5028037;28;20531;-71
2021/12/03 00:12:58;;;;;;;33.80;7.93;;;;;;;0.64;73.58;100347.53;5027752;28;20535;-71
2021/12/03 00:15:27;;;;;;;25.75;7.60;;;;;;;0.74;73.30;100350.81;5026566;28;20426;-71
2021/12/03 00:17:54;;;;;;;21.25;7.80;;;;;;;0.68;73.41;100346.63;5027637;28;20049;-71
2021/12/03 00:20:24;;;;;;;16.25;7.82;;;;;;;0.98;72.03;100351.22;5027485;28;20099;-72
2021/12/03 00:22:52;;;;;;;21.33;7.18;;;;;;;1.15;71.53;100350.03;5028059;28;20508;-71
2021/12/03 00:25:19;;;;;;;15.63;7.22;;;;;;;0.96;71.66;100345.22;5047299;28;20459;-71
2021/12/03 00:27:46;;;;;;;16.75;6.03;;;;;;;0.76;71.64;100338.72;5047482;28;20049;-71
2021/12/03 00:30:15;;;;;;;17.58;6.00;;;;;;;0.49;73.42;100333.19;5049888;28;20696;-70
2021/12/03 00:32:42;;;;;;;22.23;6.93;;;;;;;0.66;73.41;100329.47;5049868;28;20086;-71
2021/12/03 00:35:10;;;;;;;14.60;6.72;;;;;;;0.73;72.30;100331.06;5050463;28;20594;-71
2021/12/03 00:37:38;;;;;;;17.20;6.50;;;;;;;0.69;72.13;100322.53;5048452;28;20075;-71
2021/12/03 00:40:07;;;;;;;15.55;6.82;;;;;;;0.42;73.25;100333.31;5036918;28;20065;-70
2021/12/03 00:42:33;;;;;;;20.50;6.60;;;;;;;0.50;72.77;100326.31;5049468;28;20496;-71
2021/12/03 00:45:01;;;;;;;13.43;6.43;;;;;;;0.40;73.12;100325.63;5047803;28;20060;-71
2021/12/03 00:47:28;;;;;;;14.95;5.80;;;;;;;0.44;72.98;100326.41;5049672;28;20048;-70
2021/12/03 00:49:54;;;;;;;19.50;6.70;;;;;;;0.50;73.05;100331.47;5045885;28;20099;-70
2021/12/03 00:52:20;;;;;;;12.20;5.03;;;;;;;0.42;73.37;100329.00;5049717;28;20048;-70
2021/12/03 00:54:49;;;;;;;13.82;4.93;;;;;;;0.35;74.15;100331.72;5049359;28;20110;-70
2021/12/03 00:57:15;;;;;;;13.18;4.95;;;;;;;0.36;73.56;100333.44;5048913;28;20045;-70
2021/12/03 00:59:41;;;;;;;12.60;4.22;;;;;;;0.18;74.39;100324.28;5030158;28;20045;-71
2021/12/03 01:02:08;;;;;;;16.75;4.20;;;;;;;0.37;73.88;100327.41;5034710;28;20103;-71
2021/12/03 01:04:35;;;;;;;5.78;2.30;;;;;;;0.00;75.30;100329.72;5043622;28;20049;-71
2021/12/03 01:07:01;;;;;;;6.70;2.67;;;;;;;0.00;75.38;100330.53;5028191;28;20045;-71
2021/12/03 01:09:31;;;;;;;9.68;2.50;;;;;;;0.09;75.00;100331.28;5047312;28;20045;-71
2021/12/03 01:11:59;;;;;;;3.95;1.80;;;;;;;0.51;73.42;100334.88;5049056;28;20421;-71
2021/12/03 01:14:25;;;;;;;7.57;1.95;;;;;;;0.25;74.35;100327.59;5044683;28;20416;-71
2021/12/03 01:16:52;;;;;;;7.65;1.58;;;;;;;0.17;74.48;100340.59;5043496;28;20587;-71
2021/12/03 01:19:19;;;;;;;4.95;2.30;;;;;;;0.32;73.90;100329.19;5049234;28;20098;-71
2021/12/03 01:21:46;;;;;;;5.63;2.80;;;;;;;0.29;73.98;100336.97;5049134;28;20098;-71
2021/12/03 01:24:13;;;;;;;12.38;1.80;;;;;;;0.29;74.12;100334.41;5049838;28;20053;-71
2021/12/03 01:26:41;;;;;;;6.20;1.77;;;;;;;0.36;73.91;100336.00;5047929;28;20045;-71
2021/12/03 01:29:09;;;;;;;4.72;1.60;;;;;;;0.31;73.78;100330.06;5047446;28;20068;-71
2021/12/03 01:31:35;;;;;;;4.88;1.38;;;;;;;0.34;73.68;100327.44;5029267;28;20662;-71
2021/12/03 01:34:02;;;;;;;3.92;1.95;;;;;;;0.54;72.85;100327.94;5048069;28;20099;-71
2021/12/03 01:36:30;;;;;;;7.70;2.05;;;;;;;0.35;73.60;100329.13;5048649;28;20068;-71
2021/12/03 01:38:56;;;;;;;4.40;1.83;;;;;;;0.15;74.10;100326.06;5048643;28;20045;-71
2021/12/03 01:41:23;;;;;;;5.03;1.50;;;;;;;0.16;73.94;100320.84;5048748;28;20095;-71
2021/12/03 01:43:51;;;;;;;5.93;1.40;;;;;;;0.06;74.20;100329.63;5049066;28;20455;-71
2021/12/03 01:46:19;;;;;;;3.40;1.75;;;;;;;0.14;73.83;100324.34;5033934;28;20045;-71
2021/12/03 01:48:46;;;;;;;2.88;1.60;;;;;;;0.02;74.23;100346.00;5040654;28;20512;-71
2021/12/03 01:51:12;;;;;;;1.67;1.50;;;;;;;-0.03;74.40;100330.59;5049154;28;20040;-71
2021/12/03 01:53:39;;;;;;;4.88;1.42;;;;;;;-0.09;74.12;100328.13;5048186;28;20132;-71
2021/12/03 01:56:09;;;;;;;5.15;1.48;;;;;;;-0.05;74.41;100329.78;5049018;28;20049;-70
2021/12/03 01:58:36;;;;;;;3.80;2.03;;;;;;;-0.11;74.38;100331.59;5048563;28;20428;-71
2021/12/03 02:01:09;;;;;;;6.90;1.70;;;;;;;-0.23;74.99;100326.63;5045505;28;20071;-71
2021/12/03 02:03:38;;;;;;;6.30;2.50;;;;;;;-0.17;74.77;100321.38;5044550;28;20095;-71
2021/12/03 02:06:06;;;;;;;2.80;1.60;;;;;;;-0.11;74.79;100327.28;5032038;28;20075;-71
2021/12/03 02:08:33;;;;;;;4.82;1.70;;;;;;;-0.26;75.31;100327.50;5042669;28;20099;-71
2021/12/03 02:11:00;;;;;;;6.50;1.83;;;;;;;-0.31;75.34;100331.03;5043351;28;20104;-71
2021/12/03 02:13:27;;;;;;;7.03;1.55;;;;;;;-0.28;75.27;100328.41;5046614;28;20044;-71
2021/12/03 02:15:53;;;;;;;12.52;1.60;;;;;;;-0.09;74.44;100341.00;5038952;28;20053;-71
2021/12/03 02:18:20;;;;;;;3.47;1.48;;;;;;;-0.16;74.82;100335.97;5048385;28;20574;-71
2021/12/03 02:20:49;;;;;;;4.30;1.58;;;;;;;-0.28;75.10;100339.56;5040086;28;20094;-71
2021/12/03 02:23:17;;;;;;;2.85;1.33;;;;;;;-0.17;74.57;100337.69;5048730;28;20041;-71
2021/12/03 02:25:44;;;;;;;5.82;1.40;;;;;;;0.02;74.02;100334.84;5049059;28;20095;-71
2021/12/03 02:28:11;;;;;;;5.78;1.63;;;;;;;0.01;73.62;100339.13;5048780;28;20124;-71
2021/12/03 02:30:38;;;;;;;13.55;1.42;;;;;;;-0.07;73.78;100334.09;5048123;28;20044;-71
2021/12/03 02:33:05;;;;;;;1.27;1.17;;;;;;;-0.02;73.75;100341.75;5030444;28;20073;-71
2021/12/03 02:35:32;;;;;;;4.60;1.50;;;;;;;-0.01;73.63;100328.00;5028847;28;20037;-71
2021/12/03 02:37:59;;;;;;;7.00;1.90;;;;;;;-0.53;75.37;100338.19;5037309;28;20130;-71
2021/12/03 02:40:27;;;;;;;5.05;1.40;;;;;;;-0.54;75.18;100337.34;5051952;28;20049;-71
2021/12/03 02:42:54;;;;;;;5.40;1.75;;;;;;;-0.67;75.50;100327.22;5051151;28;20045;-71
2021/12/03 02:45:21;;;;;;;4.78;1.42;;;;;;;-0.65;75.44;100338.34;5051956;28;20069;-71
2021/12/03 02:47:48;;;;;;;6.20;1.65;;;;;;;-0.64;75.33;100340.06;5037222;28;20045;-70
2021/12/03 02:50:15;;;;;;;5.05;2.55;;;;;;;-0.68;75.59;100339.25;5052058;28;20095;-70
2021/12/03 02:52:42;;;;;;;8.70;2.10;;;;;;;-0.68;75.56;100351.25;5032784;28;20508;-71
2021/12/03 02:55:10;;;;;;;4.82;1.60;;;;;;;-0.62;75.02;100346.88;5039918;28;20111;-71
2021/12/03 02:57:37;;;;;;;4.55;1.77;;;;;;;-0.49;74.39;100350.16;5051158;28;20095;-71
2021/12/03 03:00:06;;;;;;;4.68;1.70;;;;;;;-0.58;74.24;100345.97;5051995;28;20049;-71
2021/12/03 03:02:32;;;;;;;6.35;1.85;;;;;;;-0.40;73.72;100351.75;5052109;28;20049;-71
2021/12/03 03:04:59;;;;;;;3.38;1.23;;;;;;;-0.47;74.03;100347.56;5051730;28;20102;-71
2021/12/03 03:07:25;;;;;;;3.83;1.45;;;;;;;-0.35;73.37;100350.81;5048877;28;20072;-71
2021/12/03 03:09:51;;;;;;;2.20;1.30;;;;;;;-0.17;72.54;100341.97;5051841;28;20052;-71
2021/12/03 03:12:19;;;;;;;3.53;1.83;;;;;;;-0.23;72.74;100342.94;5051311;28;20078;-71
2021/12/03 03:14:47;;;;;;;10.40;2.13;;;;;;;-0.03;71.95;100348.63;5051707;28;20045;-71
2021/12/03 03:17:14;;;;;;;9.30;1.80;;;;;;;-0.22;72.50;100352.34;5033444;28;20049;-71
2021/12/03 03:19:40;;;;;;;3.55;1.88;;;;;;;-0.03;72.07;100363.25;5031134;28;20137;-71
2021/12/03 03:22:07;;;;;;;9.18;1.60;;;;;;;-0.14;72.15;100365.97;5016579;28;20073;-71
2021/12/03 03:24:34;;;;;;;5.75;1.80;;;;;;;0.00;71.57;100371.78;5017460;28;20398;-71
2021/12/03 03:27:00;;;;;;;5.00;2.22;;;;;;;-0.01;71.51;100371.81;5028741;28;20107;-71
2021/12/03 03:29:29;;;;;;;2.45;1.83;;;;;;;-0.04;71.58;100364.97;5031531;28;20092;-71
2021/12/03 03:31:55;;;;;;;5.07;1.88;;;;;;;-0.09;72.02;100373.66;5031941;28;20682;-71
2021/12/03 03:34:22;;;;;;;7.28;2.30;;;;;;;-0.08;71.99;100371.06;5020687;28;20096;-71
2021/12/03 03:36:48;;;;;;;4.22;1.85;;;;;;;0.12;71.20;100375.91;5029201;28;20386;-71
2021/12/03 03:39:15;;;;;;;7.80;1.88;;;;;;;-0.10;71.60;100375.38;5031616;28;20111;-71
2021/12/03 03:41:42;;;;;;;4.32;1.90;;;;;;;-0.12;71.61;100384.88;5031197;28;20092;-71
2021/12/03 03:44:10;;;;;;;5.18;2.47;;;;;;;-0.25;71.37;100385.88;5020927;28;20049;-71
2021/12/03 03:46:39;;;;;;;5.72;2.55;;;;;;;-0.35;72.36;100389.47;5022092;28;20100;-71
2021/12/03 03:49:05;;;;;;;9.73;1.88;;;;;;;-0.23;71.58;100383.31;5033660;28;20048;-71
2021/12/03 03:51:33;;;;;;;6.47;2.25;;;;;;;-0.36;71.95;100385.19;5030875;28;20041;-71
2021/12/03 03:53:59;;;;;;;5.65;2.08;;;;;;;-0.36;71.93;100376.59;5030866;28;20064;-71
2021/12/03 03:56:26;;;;;;;8.00;2.35;;;;;;;-0.62;72.54;100379.50;5031091;28;20110;-71
2021/12/03 03:58:52;;;;;;;2.85;1.50;;;;;;;-0.67;73.02;100381.31;5030712;28;20556;-71
2021/12/03 04:01:19;;;;;;;3.15;2.00;;;;;;;-0.43;71.85;100390.44;5027871;28;20087;-71
2021/12/03 04:03:47;;;;;;;5.60;2.10;;;;;;;-0.39;71.99;100380.06;5030522;28;20095;-71
2021/12/03 04:06:13;;;;;;;9.02;2.50;;;;;;;-0.45;72.52;100382.75;5031325;28;20041;-71
2021/12/03 04:08:40;;;;;;;5.05;2.35;;;;;;;-0.55;72.72;100386.28;5030104;28;20096;-71
2021/12/03 04:11:06;;;;;;;5.45;2.78;;;;;;;-0.28;72.16;100396.25;5030012;28;20080;-71
2021/12/03 04:13:33;;;;;;;11.48;3.63;;;;;;;-0.34;72.22;100380.88;5029671;28;20386;-71
2021/12/03 04:15:59;;;;;;;4.05;2.42;;;;;;;-0.46;72.91;100391.31;5026443;28;20470;-71
2021/12/03 04:18:25;;;;;;;11.77;2.72;;;;;;;-0.30;72.49;100382.53;5023105;28;20065;-71
2021/12/03 04:20:54;;;;;;;3.55;2.50;;;;;;;-0.31;72.79;100393.72;5023805;28;20057;-71
2021/12/03 04:23:21;;;;;;;11.07;2.25;;;;;;;-0.48;73.32;100381.94;5029118;28;20413;-71
2021/12/03 04:25:48;;;;;;;4.88;2.58;;;;;;;-0.33;73.36;100392.88;5028871;28;20099;-71
2021/12/03 04:28:15;;;;;;;5.53;3.17;;;;;;;-0.24;73.09;100397.91;5030859;28;20038;-71
2021/12/03 04:30:42;;;;;;;8.82;2.65;;;;;;;-0.26;72.98;100394.47;5028704;28;20410;-71
2021/12/03 04:33:09;;;;;;;4.70;2.80;;;;;;;-0.25;73.35;100393.63;5030346;28;20501;-71
2021/12/03 04:35:36;;;;;;;6.97;3.10;;;;;;;-0.24;73.32;100395.34;5029868;28;20099;-71
2021/12/03 04:38:04;;;;;;;10.15;3.20;;;;;;;-0.29;73.54;100397.09;5030100;28;20049;-71
2021/12/03 04:40:32;;;;;;;12.77;3.25;;;;;;;-0.13;72.86;100395.19;5030007;28;20390;-71
2021/12/03 04:42:59;;;;;;;5.70;2.60;;;;;;;-0.08;72.90;100394.25;5030413;28;20115;-71
2021/12/03 04:45:27;;;;;;;9.05;3.78;;;;;;;-0.21;73.71;100397.00;5030181;28;20548;-71
2021/12/03 04:47:55;;;;;;;9.23;2.92;;;;;;;-0.09;73.09;100402.00;5020956;28;20049;-70
2021/12/03 04:50:25;;;;;;;12.18;4.35;;;;;;;0.05;72.58;100394.91;5029714;28;20549;-70
2021/12/03 04:52:52;;;;;;;6.88;3.50;;;;;;;-0.11;73.18;100398.59;5030002;28;20081;-71
2021/12/03 04:55:21;;;;;;;9.75;3.20;;;;;;;-0.21;73.71;100408.16;5015229;28;20068;-71
2021/12/03 04:57:49;;;;;;;7.22;3.63;;;;;;;-0.10;73.59;100410.59;5020256;28;20599;-71
2021/12/03 05:00:19;;;;;;;12.40;4.20;;;;;;;-0.13;73.48;100406.34;5027756;28;20072;-71
2021/12/03 05:02:45;;;;;;;5.55;3.00;;;;;;;-0.21;74.04;100408.16;5012338;28;20038;-71
2021/12/03 05:05:12;;;;;;;20.38;3.47;;;;;;;-0.14;73.78;100412.38;5030176;28;20496;-71
2021/12/03 05:07:57;;;;;;;7.55;3.90;;;;;;;-0.02;73.30;100411.34;5049422;28;20049;-71
2021/12/03 05:10:25;;;;;;;5.43;3.35;;;;;;;-0.08;73.63;100402.00;5049522;28;20068;-71
2021/12/03 05:12:52;;;;;;;8.18;3.60;;;;;;;0.05;73.63;100406.94;5042403;28;20095;-71
2021/12/03 05:15:19;;;;;;;12.57;4.80;;;;;;;0.47;71.57;100412.34;5033751;28;20052;-71
2021/12/03 05:17:45;;;;;;;8.85;4.07;;;;;;;0.35;71.93;100419.41;5046797;28;20051;-71
2021/12/03 05:20:12;;;;;;;6.60;4.13;;;;;;;0.13;72.82;100412.84;5045446;28;20086;-71
2021/12/03 05:22:39;;;;;;;9.50;4.35;;;;;;;0.15;72.66;100421.44;5046549;28;20593;-71
2021/12/03 05:25:06;;;;;;;9.13;3.15;;;;;;;0.04;72.75;100420.72;5049779;28;20048;-71
2021/12/03 05:27:34;;;;;;;6.35;3.30;;;;;;;0.04;72.62;100423.31;5048842;28;20041;-72
2021/12/03 05:30:01;;;;;;;7.45;4.03;;;;;;;0.02;72.73;100419.88;5059721;28;20056;-70
2021/12/03 05:32:27;;;;;;;6.03;3.20;;;;;;;0.03;72.43;100437.91;5065626;28;20041;-70
2021/12/03 05:34:54;;;;;;;8.93;3.28;;;;;;;0.19;71.72;100431.66;5044012;28;20054;-70
2021/12/03 05:37:20;;;;;;;9.05;3.40;;;;;;;0.28;71.00;100438.41;5039710;28;20050;-71
2021/12/03 05:39:46;;;;;;;12.25;3.92;;;;;;;0.36;70.75;100441.75;5057455;28;20253;-70
2021/12/03 05:42:13;;;;;;;7.80;3.72;;;;;;;0.30;70.52;100449.53;5058758;28;20041;-70
2021/12/03 05:44:40;;;;;;;8.90;3.65;;;;;;;0.06;71.16;100443.03;5060582;28;20099;-70
2021/12/03 05:47:07;;;;;;;6.20;2.65;;;;;;;-0.28;72.53;100459.78;5054116;28;20048;-70
2021/12/03 05:49:33;;;;;;;11.40;3.92;;;;;;;-0.39;72.60;100448.75;5046823;28;20045;-71
2021/12/03 05:52:00;;;;;;;5.20;3.25;;;;;;;-0.70;73.56;100456.00;5048948;28;20095;-71
2021/12/03 05:54:28;;;;;;;4.22;2.35;;;;;;;-0.62;73.13;100457.59;5048623;28;20075;-71
2021/12/03 05:56:54;;;;;;;8.75;2.63;;;;;;;-0.57;72.53;100454.97;5045859;28;20049;-71
2021/12/03 05:59:21;;;;;;;6.75;2.42;;;;;;;-0.70;72.85;100458.56;5048209;28;20048;-71
2021/12/03 06:01:48;;;;;;;5.20;3.22;;;;;;;-0.69;72.65;100455.97;5049010;28;20095;-71
2021/12/03 06:04:15;;;;;;;6.60;2.42;;;;;;;-0.64;72.18;100443.91;5049345;28;20094;-71
2021/12/03 06:06:41;;;;;;;6.30;2.03;;;;;;;-0.56;72.22;100449.84;5048611;28;20095;-71
2021/12/03 06:09:07;;;;;;;4.00;2.20;;;;;;;-0.63;72.16;100452.50;5041726;28;20045;-71
2021/12/03 06:11:34;;;;;;;3.65;2.28;;;;;;;-0.70;72.56;100454.25;5047760;28;20111;-71
2021/12/03 06:14:00;;;;;;;5.93;2.15;;;;;;;-0.56;71.92;100447.25;5051455;28;20072;-71
2021/12/03 06:16:27;;;;;;;4.05;1.90;;;;;;;-0.80;72.94;100451.78;5048336;28;20041;-70
2021/12/03 06:18:55;;;;;;;4.10;2.50;;;;;;;-0.59;72.46;100448.97;5052148;28;20450;-70
2021/12/03 06:21:21;;;;;;;6.72;2.72;;;;;;;-0.85;73.11;100453.59;5052832;28;20110;-70
2021/12/03 06:23:47;;;;;;;2.83;2.08;;;;;;;-0.99;73.71;100448.53;5052325;28;20044;-70
2021/12/03 06:26:14;;;;;;;6.13;2.80;;;;;;;-0.81;73.11;100456.09;5053131;28;20052;-70
2021/12/03 06:28:41;;;;;;;5.45;2.80;;;;;;;-0.83;73.24;100457.84;5052924;28;20045;-71
2021/12/03 06:31:08;;;;;;;10.52;2.78;;;;;;;-0.67;72.89;100459.41;5052609;28;20046;-71
2021/12/03 06:33:35;;;;;;;4.88;2.80;;;;;;;-0.78;73.11;100458.66;5052657;28;20090;-71
2021/12/03 06:36:03;;;;;;;8.88;3.33;;;;;;;-0.86;73.31;100457.88;5052560;28;20238;-71
2021/12/03 06:38:31;;;;;;;5.07;2.45;;;;;;;-0.85;73.50;100458.72;5051913;28;20493;-71
2021/12/03 06:40:58;;;;;;;8.25;2.53;;;;;;;-1.05;74.01;100464.06;5052596;28;20389;-70
2021/12/03 06:43:24;;;;;;;8.93;2.95;;;;;;;-0.92;73.71;100467.38;5052585;28;20107;-70
2021/12/03 06:45:51;;;;;;;16.02;3.40;;;;;;;-0.59;72.63;100460.13;5052262;28;20481;-70
2021/12/03 06:48:21;;;;;;;11.93;3.67;;;;;;;-0.65;72.84;100459.34;5045528;28;20513;-71
2021/12/03 06:50:49;;;;;;;9.80;3.60;;;;;;;-0.63;72.53;100460.22;5052445;28;20045;-71
2021/12/03 06:53:20;;;;;;;8.23;2.80;;;;;;;-0.82;73.26;100456.13;5051446;28;20041;-71
2021/12/03 06:55:47;;;;;;;8.30;3.50;;;;;;;-1.00;73.84;100454.59;5051885;28;20079;-71
2021/12/03 06:58:15;;;;;;;9.15;4.20;;;;;;;-1.05;74.47;100462.34;5049467;28;20123;-70
2021/12/03 07:00:42;;;;;;;6.50;3.38;;;;;;;-1.14;74.77;100462.41;5031980;28;20045;-70
2021/12/03 07:03:09;;;;;;;9.98;3.63;;;;;;;-1.23;75.02;100467.66;5035673;28;20072;-70
2021/12/03 07:05:35;;;;;;;8.88;4.07;;;;;;;-1.09;74.78;100472.66;5051723;28;20099;-70
2021/12/03 07:08:02;;;;;;;10.27;3.70;;;;;;;-1.04;74.53;100482.06;5050837;28;20053;-71
2021/12/03 07:10:30;;;;;;;10.63;3.88;;;;;;;-0.69;73.30;100481.72;5051843;28;20119;-71
2021/12/03 07:12:56;;;;;;;13.35;3.58;;;;;;;-0.70;73.22;100484.31;5049889;28;20424;-71
2021/12/03 07:15:23;;;;;;;6.97;3.20;;;;;;;-0.56;72.43;100493.59;5035343;28;20057;-71
2021/12/03 07:17:51;;;;;;;7.82;3.58;;;;;;;-0.82;73.36;100479.28;5045091;28;20044;-71
2021/12/03 07:20:19;;;;;;;8.48;3.72;;;;;;;-1.29;75.52;100488.25;5037016;28;20041;-71
2021/12/03 07:22:45;;;;;;;9.32;3.92;;;;;;;-1.35;76.03;100490.03;5035641;28;20103;-71
2021/12/03 07:25:12;;;;;;;8.52;3.85;;;;;;;-1.40;76.70;100484.91;5050895;28;20044;-71
2021/12/03 07:27:40;;;;;;;15.05;3.90;;;;;;;-1.15;75.78;100485.59;5051457;28;20056;-71
2021/12/03 07:30:09;;;;;;;6.03;3.63;;;;;;;-1.23;76.43;100503.66;5035480;28;20041;-71
2021/12/03 07:32:36;;;;;;;10.35;3.97;;;;;;;-1.06;76.14;100491.50;5031412;28;20091;-71
2021/12/03 07:35:03;;;;;;;8.95;4.32;;;;;;;-0.95;75.93;100501.69;5031375;28;20444;-71
2021/12/03 07:37:29;;;;;;;10.30;4.43;;;;;;;-0.94;75.84;100497.41;5032809;28;20492;-71
2021/12/03 07:39:58;;;;;;;9.63;4.45;;;;;;;-0.67;74.93;100492.00;5037344;28;20520;-71
2021/12/03 07:42:24;;;;;;;24.95;5.60;;;;;;;-0.31;73.53;100494.19;5050472;28;20424;-71
2021/12/03 07:44:52;;;;;;;15.65;5.82;;;;;;;-0.23;73.18;100487.22;5050330;28;20057;-71
2021/12/03 07:47:18;;;;;;;11.15;5.10;;;;;;;-0.19;73.47;100483.75;5045418;28;20103;-71
2021/12/03 07:49:46;;;;;;;12.75;4.88;;;;;;;-0.42;74.15;100484.88;5043004;28;20041;-71
2021/12/03 07:52:15;;;;;;;11.77;5.43;;;;;;;-0.32;74.12;100489.91;5034960;28;20147;-71
2021/12/03 07:54:41;;;;;;;20.17;5.97;;;;;;;-0.30;74.06;100492.47;5031030;28;20052;-71
2021/12/03 07:57:08;;;;;;;9.20;5.20;;;;;;;-0.42;74.43;100498.59;5037392;28;22973;-71
2021/12/03 07:59:34;;;;;;;9.50;4.95;;;;;;;-0.12;73.70;100503.41;5034840;28;20045;-70
2021/12/03 08:02:02;;;;;;;13.07;4.35;;;;;;;0.33;72.41;100512.25;5040021;28;20099;-71
2021/12/03 08:04:29;;;;;;;14.60;6.15;;;;;;;0.32;72.23;100517.44;5049336;28;20443;-71
2021/12/03 08:06:55;;;;;;;13.15;5.53;;;;;;;0.58;71.85;100512.78;5047546;28;20041;-71
2021/12/03 08:09:22;;;;;;;14.43;4.38;;;;;;;1.05;70.49;100522.34;5048814;28;20049;-71
2021/12/03 08:11:49;;;;;;;14.27;5.22;;;;;;;1.24;69.90;100533.22;5048267;28;20049;-71
2021/12/03 08:14:16;;;;;;;10.05;4.22;;;;;;;1.38;69.13;100515.75;5050210;28;20055;-71
2021/12/03 08:16:43;;;;;;;9.90;5.78;;;;;;;1.63;68.40;100531.66;5049287;28;20045;-71
2021/12/03 08:19:11;;;;;;;10.70;4.00;;;;;;;1.74;68.02;100534.88;5048343;28;20052;-71
2021/12/03 08:21:38;;;;;;;8.55;4.20;;;;;;;2.13;66.86;100528.09;5042955;28;20098;-71
2021/12/03 08:24:05;;;;;;;11.98;3.92;;;;;;;2.52;65.55;100524.63;5050271;28;20075;-71
2021/12/03 08:26:32;;;;;;;9.85;4.13;;;;;;;2.39;66.10;100529.25;5038802;28;20049;-71
2021/12/03 08:29:00;;;;;;;12.88;5.47;;;;;;;2.36;65.77;100531.06;5035492;28;20056;-71
2021/12/03 08:31:26;;;;;;;8.57;4.32;;;;;;;2.22;66.94;100526.16;5035884;28;20122;-71
2021/12/03 08:33:53;;;;;;;7.97;4.50;;;;;;;2.14;67.03;100522.03;5041784;28;20108;-71
2021/12/03 08:36:21;;;;;;;12.60;4.38;;;;;;;1.99;67.83;100519.75;5037765;28;20049;-71
2021/12/03 08:38:47;;;;;;;7.35;3.53;;;;;;;1.87;68.26;100520.84;5037779;28;20099;-71
2021/12/03 08:41:17;;;;;;;11.77;4.05;;;;;;;2.18;67.46;100505.56;5046271;28;20572;-71
2021/12/03 08:43:44;;;;;;;6.57;4.15;;;;;;;2.36;67.58;100507.75;5046611;28;20049;-72
2021/12/03 08:46:14;;;;;;;9.48;4.40;;;;;;;2.38;67.40;100501.66;5049454;28;20459;-71
2021/12/03 08:48:43;;;;;;;10.38;4.40;;;;;;;2.62;66.38;100508.03;5047082;28;20103;-71
2021/12/03 08:51:20;;;;;;;14.52;4.18;;;;;;;2.76;65.72;100505.97;5041365;28;20041;-71
2021/12/03 08:56:32;;;;;;;8.23;3.90;;;;;;;3.19;65.50;100504.91;5039767;28;20184;-71
2021/12/03 08:58:59;;;;;;;8.13;3.95;;;;;;;3.43;64.13;100504.28;5037869;28;20095;-71
2021/12/03 09:01:25;;;;;;;5.85;4.10;;;;;;;3.48;63.85;100501.56;5049340;28;20045;-71
2021/12/03 09:03:53;;;;;;;9.10;4.35;;;;;;;3.90;63.34;100505.59;5049129;28;20626;-71
2021/12/03 09:06:19;;;;;;;9.38;4.22;;;;;;;4.04;62.51;100507.78;5035576;28;20048;-71
2021/12/03 09:08:47;;;;;;;7.15;3.92;;;;;;;3.87;63.02;100510.88;5038509;28;20106;-71
2021/12/03 09:11:15;;;;;;;10.05;4.43;;;;;;;4.10;61.94;100515.41;5041472;28;20463;-69
2021/12/03 09:13:42;;;;;;;7.03;4.45;;;;;;;4.52;61.14;100514.13;5042777;28;20071;-69
2021/12/03 09:16:11;;;;;;;9.23;4.35;;;;;;;4.72;60.28;100519.56;5029231;28;20053;-68
2021/12/03 09:18:39;;;;;;;7.72;4.28;;;;;;;4.53;59.83;100514.97;5035544;28;20140;-68
2021/12/03 09:21:08;;;;;;;6.13;3.83;;;;;;;5.22;58.70;100515.31;5036366;28;20048;-67
2021/12/03 09:23:42;;;;;;;9.25;4.72;;;;;;;5.05;58.90;100517.63;5029053;28;20140;-68
2021/12/03 09:26:12;;;;;;;8.65;4.22;;;;;;;5.37;58.64;100520.00;5048069;28;20408;-68
2021/12/03 09:28:41;;;;;;;6.97;3.80;;;;;;;5.10;58.45;100518.31;5047087;28;20128;-69
2021/12/03 09:31:09;;;;;;;6.18;3.90;;;;;;;5.32;57.59;100518.47;5040487;28;20049;-69
2021/12/03 09:33:37;;;;;;;7.18;4.07;;;;;;;5.78;56.36;100521.19;5038968;28;20045;-68
2021/12/03 09:36:04;;;;;;;8.38;4.72;;;;;;;6.04;55.95;100506.41;5044348;28;20056;-68
2021/12/03 09:38:33;;;;;;;8.75;4.32;;;;;;;5.98;56.12;100517.06;5031610;28;20080;-69
2021/12/03 09:41:07;;;;;;;9.52;4.85;;;;;;;6.43;55.88;100514.50;5048021;28;20118;-68
2021/12/03 09:43:36;;;;;;;9.55;4.40;;;;;;;6.47;55.92;100506.47;5046292;28;20071;-67
2021/12/03 09:46:10;;;;;;;7.00;3.67;;;;;;;6.06;56.10;100513.25;5028426;28;20049;-66
2021/12/03 09:48:51;;;;;;;9.52;3.92;;;;;;;5.58;57.68;100515.81;5036141;28;20493;-66
2021/12/03 09:51:18;;;;;;;6.72;3.55;;;;;;;5.63;57.76;100507.84;5044643;28;20057;-67
2021/12/03 09:56:34;;;;;;;6.93;3.60;;;;;;;4.64;61.45;100512.91;5021948;28;20055;-68
2021/12/03 10:02:00;;;;;;;12.50;3.67;;;;;;;4.45;62.41;100501.38;5010684;28;20060;-68
2021/12/03 10:12:43;;;;;;;12.43;4.28;;;;;;;5.03;61.66;100495.19;5039476;28;20410;-68
2021/12/03 10:15:15;;;;;;;6.85;3.88;;;;;;;5.04;61.50;100482.16;5047089;28;20095;-68
2021/12/03 10:17:50;;;;;;;7.47;4.05;;;;;;;5.07;61.49;100483.78;5038424;28;20065;-68
2021/12/03 10:20:25;;;;;;;7.28;3.17;;;;;;;5.37;60.99;100490.56;5044650;28;20056;-69
2021/12/03 10:28:55;;;;;;;5.50;2.85;;;;;;;5.69;59.51;100490.28;5019589;28;19928;-69
2021/12/03 10:34:25;;;;;;;8.13;3.80;;;;;;;6.19;58.51;100469.38;5046064;28;20049;-69
2021/12/03 10:37:15;;;;;;;5.38;3.38;;;;;;;5.85;58.76;100465.41;5043454;28;20530;-68
2021/12/03 10:39:49;;;;;;;7.83;3.73;;;;;;;5.57;59.94;100472.53;5048056;28;20069;-68
2021/12/03 10:42:29;;;;;;;8.57;4.97;;;;;;;5.40;59.58;100472.25;5038361;28;20287;-69
2021/12/03 10:45:04;;;;;;;8.63;5.10;;;;;;;5.70;60.25;100470.31;5023416;28;20124;-69
2021/12/03 10:47:55;;;;;;;11.15;5.47;;;;;;;5.49;59.55;100469.34;5016407;28;20073;-69
2021/12/03 10:50:38;;;;;;;6.90;4.38;;;;;;;5.53;60.61;100470.94;5027578;28;20046;-69
2021/12/03 10:53:20;;;;;;;9.18;5.80;;;;;;;6.28;58.00;100466.44;5024394;28;20049;-69
2021/12/03 10:58:59;;;;;;;14.60;5.00;;;;;;;5.45;60.12;100451.28;5013743;28;20571;-69
2021/12/03 11:07:30;;;;;;;13.65;5.13;;;;;;;4.53;62.77;100448.31;5019018;28;20175;-71
2021/12/03 11:18:34;;;;;;;14.32;5.97;;;;;;;4.97;61.81;100436.47;5016996;28;20103;-70
2021/12/03 11:38:08;;;;;;;11.27;5.90;;;;;;;4.43;64.41;100424.38;5016963;28;20609;-71
2021/12/03 13:57:10;;;;;;;7.97;4.40;;;;;;;3.44;68.63;100346.13;5065122;28;20132;-65
2021/12/03 13:59:49;;;;;;;18.08;5.80;;;;;;;3.38;69.04;100343.72;5065039;28;20033;-65
2021/12/03 14:02:50;;;;;;;9.32;4.55;;;;;;;3.37;69.32;100333.38;5065437;28;20048;-65
2021/12/03 14:05:44;;;;;;;9.93;5.47;;;;;;;3.35;69.29;100330.88;5065487;28;20041;-65
2021/12/03 14:08:47;;;;;;;14.75;5.97;;;;;;;3.34;69.43;100330.91;5057219;28;20132;-65
2021/12/03 14:36:48;;;;;;;15.40;7.95;;;;;;;2.98;71.72;100301.69;5063772;28;20463;-66
2021/12/03 14:39:43;;;;;;;14.38;7.10;;;;;;;3.26;70.49;100301.75;5056930;28;20420;-66
2021/12/03 14:45:27;;;;;;;13.75;7.78;;;;;;;3.16;70.66;100296.00;4995993;28;20050;-66
2021/12/03 14:48:20;;;;;;;11.75;6.45;;;;;;;3.01;71.55;100298.16;5071095;28;20106;-66
2021/12/03 14:51:06;;;;;;;14.75;7.28;;;;;;;2.87;71.50;100296.81;5059271;28;20060;-65
2021/12/03 14:53:43;;;;;;;17.40;7.20;;;;;;;2.86;71.74;100284.75;5051386;28;20160;-65
2021/12/03 14:56:11;;;;;;;15.65;7.45;;;;;;;2.93;71.19;100288.88;5051538;28;20044;-65
2021/12/03 14:58:47;;;;;;;11.32;6.07;;;;;;;2.69;71.69;100289.56;5063074;28;20044;-65
2021/12/03 15:01:21;;;;;;;9.95;5.65;;;;;;;2.85;71.32;100293.41;5067174;28;20512;-65
2021/12/03 15:04:04;;;;;;;7.75;4.60;;;;;;;3.03;70.71;100294.63;5071438;28;20125;-65
2021/12/03 15:06:35;;;;;;;16.52;6.03;;;;;;;3.11;70.34;100299.59;5070359;28;20106;-65
2021/12/03 15:09:08;;;;;;;10.40;5.28;;;;;;;3.04;70.16;100295.50;5062366;28;20048;-65
2021/12/03 15:11:58;;;;;;;11.10;5.40;;;;;;;3.01;70.38;100298.16;5051609;28;20122;-65
2021/12/03 15:20:26;;;;;;;13.50;6.03;;;;;;;3.15;70.23;100306.41;5057882;28;20140;-65
2021/12/03 15:25:54;;;;;;;10.98;4.68;;;;;;;2.98;70.60;100293.09;5036109;28;20045;-65
2021/12/03 15:31:17;;;;;;;10.27;4.32;;;;;;;2.92;70.13;100289.75;5061638;28;20595;-65